Airfield :
LOGIN :

Register | Disclaimer

   EN    FR    IT 

 










Legend :    VFR   Marginal VFR   IFR   Intensive IFR   Very Intensive IFR
Visi :
Ceiling :
>= 8 km
>= 3000ft
5 to 8 km
1000 to 3000 ft
1500m to 5 km
500 to 1000 ft
800 to 1500m
200 to 500 ft
< 800m
< 200 ft
Symbols :   Thunderstorms  Fog  Heavy snow  Heavy precipitations  Wind > 20 kt
SIGMETs :     Misc.  Thunderstorms  Icing  Turbulence  Mountain Waves  Volcanic Ashes






- Airport Elevation : 184 ft
- IATA code : BRU


EBBR - Bruxelles

CURRENT METAR :
  • 280520Z 19007KT CAVOK 02/01 Q1021 NOSIG

EXPIRED METARs :
  • 280450Z 19007KT CAVOK 02/00 Q1020 NOSIG
  • 280420Z 20006KT CAVOK 02/01 Q1020 NOSIG
  • 280350Z 19006KT CAVOK 01/00 Q1020 NOSIG
  • 280320Z 20006KT CAVOK 02/00 Q1020 NOSIG
  • 280250Z 20006KT CAVOK 02/01 Q1020 NOSIG
  • 280220Z 21005KT CAVOK 01/00 Q1020 NOSIG
  • 280150Z 24004KT CAVOK 02/01 Q1020 NOSIG
  • 280120Z 23004KT CAVOK 02/01 Q1020 NOSIG
  • 280050Z 22004KT CAVOK 02/01 Q1020 NOSIG

TAF TAF EBBR
Valid from the 28 at 06:00 until the 29 at 12:00 UTC


280510Z 2806/2912 19007KT 9999 SCT020
PROB30
TEMPO 2806/2807 4000 BR
TEMPO 2807/2812 SCT007 BKN012
PROB30
TEMPO 2808/2811 FEW004 BKN007
TEMPO 2906/2912 SCT008 BKN013
PROB30
TEMPO 2906/2912 4000 -RADZ BKN008



MET'MAP, your aeronautical weather chart ! - Copyright ORBIFLY December 2007 - Disclaimer

ORBIFLY MET'MAP TEAM :

Programming & Development : Alexandra Zaïnal
Original concept : Baudouin d'Aumeries
Technical & hardware support : Manuel Goepfert
Assistance : Marc-Olivier Méhu




SOURCES & CREDITS :

   NOAA